sensor_id;sensor_type;location;lat;lon;timestamp;P1;durP1;ratioP1;P2;durP2;ratioP2
8462;SDS011;4268;52.506;13.462;2023-06-22T00:02:05;8.57;;;7.97;;
8462;SDS011;4268;52.506;13.462;2023-06-22T00:04:30;7.70;;;7.20;;
8462;SDS011;4268;52.506;13.462;2023-06-22T00:06:56;8.70;;;8.10;;
8462;SDS011;4268;52.506;13.462;2023-06-22T00:09:21;8.27;;;7.70;;
8462;SDS011;4268;52.506;13.462;2023-06-22T00:11:47;8.10;;;7.60;;
8462;SDS011;4268;52.506;13.462;2023-06-22T00:14:12;8.10;;;7.50;;
8462;SDS011;4268;52.506;13.462;2023-06-22T00:16:38;7.47;;;6.97;;
8462;SDS011;4268;52.506;13.462;2023-06-22T00:19:03;8.37;;;7.77;;
8462;SDS011;4268;52.506;13.462;2023-06-22T00:21:30;8.03;;;7.53;;
8462;SDS011;4268;52.506;13.462;2023-06-22T00:23:55;8.70;;;8.00;;
8462;SDS011;4268;52.506;13.462;2023-06-22T00:26:22;8.17;;;7.63;;
8462;SDS011;4268;52.506;13.462;2023-06-22T00:28:48;8.80;;;8.10;;
8462;SDS011;4268;52.506;13.462;2023-06-22T00:31:13;7.73;;;7.23;;
8462;SDS011;4268;52.506;13.462;2023-06-22T00:33:39;8.20;;;7.67;;
8462;SDS011;4268;52.506;13.462;2023-06-22T00:36:04;8.00;;;7.50;;
8462;SDS011;4268;52.506;13.462;2023-06-22T00:38:32;7.67;;;7.17;;
8462;SDS011;4268;52.506;13.462;2023-06-22T00:40:58;8.73;;;8.13;;
8462;SDS011;4268;52.506;13.462;2023-06-22T00:43:23;7.77;;;7.27;;
8462;SDS011;4268;52.506;13.462;2023-06-22T00:45:49;7.73;;;7.20;;
8462;SDS011;4268;52.506;13.462;2023-06-22T00:48:14;7.93;;;7.33;;
8462;SDS011;4268;52.506;13.462;2023-06-22T00:50:40;8.40;;;7.80;;
8462;SDS011;4268;52.506;13.462;2023-06-22T00:53:07;7.60;;;7.10;;
8462;SDS011;4268;52.506;13.462;2023-06-22T00:55:43;8.73;;;8.13;;
8462;SDS011;4268;52.506;13.462;2023-06-22T00:58:10;8.00;;;7.50;;
8462;SDS011;4268;52.506;13.462;2023-06-22T01:00:36;8.40;;;7.80;;
8462;SDS011;4268;52.506;13.462;2023-06-22T01:03:03;8.47;;;7.87;;
8462;SDS011;4268;52.506;13.462;2023-06-22T01:05:29;7.93;;;7.43;;
8462;SDS011;4268;52.506;13.462;2023-06-22T01:08:04;7.83;;;7.33;;
8462;SDS011;4268;52.506;13.462;2023-06-22T01:10:40;8.37;;;7.77;;
8462;SDS011;4268;52.506;13.462;2023-06-22T01:13:35;8.70;;;8.10;;
8462;SDS011;4268;52.506;13.462;2023-06-22T01:16:11;8.53;;;7.93;;
8462;SDS011;4268;52.506;13.462;2023-06-22T01:18:42;9.07;;;8.47;;
8462;SDS011;4268;52.506;13.462;2023-06-22T01:21:08;9.20;;;8.60;;
8462;SDS011;4268;52.506;13.462;2023-06-22T01:27:00;9.63;;;9.03;;
8462;SDS011;4268;52.506;13.462;2023-06-22T01:29:28;10.23;;;9.57;;
8462;SDS011;4268;52.506;13.462;2023-06-22T01:31:55;9.40;;;8.80;;
8462;SDS011;4268;52.506;13.462;2023-06-22T01:34:22;8.90;;;8.30;;
8462;SDS011;4268;52.506;13.462;2023-06-22T01:36:49;9.00;;;8.40;;
8462;SDS011;4268;52.506;13.462;2023-06-22T01:39:16;10.27;;;9.53;;
8462;SDS011;4268;52.506;13.462;2023-06-22T01:41:42;9.93;;;9.23;;
8462;SDS011;4268;52.506;13.462;2023-06-22T01:44:08;9.93;;;9.23;;
8462;SDS011;4268;52.506;13.462;2023-06-22T01:46:35;9.63;;;8.93;;
8462;SDS011;4268;52.506;13.462;2023-06-22T01:49:02;8.83;;;8.23;;
8462;SDS011;4268;52.506;13.462;2023-06-22T01:51:28;9.30;;;8.70;;
8462;SDS011;4268;52.506;13.462;2023-06-22T01:53:55;9.37;;;8.67;;
8462;SDS011;4268;52.506;13.462;2023-06-22T01:56:20;9.20;;;8.60;;
8462;SDS011;4268;52.506;13.462;2023-06-22T02:01:52;10.23;;;9.53;;
8462;SDS011;4268;52.506;13.462;2023-06-22T02:04:24;10.00;;;9.30;;
8462;SDS011;4268;52.506;13.462;2023-06-22T02:06:54;11.80;;;10.87;;
8462;SDS011;4268;52.506;13.462;2023-06-22T02:09:23;12.87;;;11.87;;
8462;SDS011;4268;52.506;13.462;2023-06-22T02:11:53;12.80;;;11.90;;
8462;SDS011;4268;52.506;13.462;2023-06-22T02:14:21;13.10;;;12.20;;
8462;SDS011;4268;52.506;13.462;2023-06-22T02:16:48;12.00;;;11.20;;
8462;SDS011;4268;52.506;13.462;2023-06-22T02:19:16;12.57;;;11.57;;
8462;SDS011;4268;52.506;13.462;2023-06-22T02:21:43;13.17;;;12.17;;
8462;SDS011;4268;52.506;13.462;2023-06-22T02:24:09;14.73;;;13.73;;
8462;SDS011;4268;52.506;13.462;2023-06-22T02:26:35;13.13;;;12.23;;
8462;SDS011;4268;52.506;13.462;2023-06-22T02:29:03;16.40;;;15.30;;
8462;SDS011;4268;52.506;13.462;2023-06-22T02:31:28;13.57;;;12.57;;
8462;SDS011;4268;52.506;13.462;2023-06-22T02:33:56;11.97;;;11.17;;
8462;SDS011;4268;52.506;13.462;2023-06-22T02:36:23;12.13;;;11.33;;
8462;SDS011;4268;52.506;13.462;2023-06-22T02:38:50;12.13;;;11.17;;
8462;SDS011;4268;52.506;13.462;2023-06-22T02:41:15;11.20;;;10.40;;
8462;SDS011;4268;52.506;13.462;2023-06-22T02:43:47;12.13;;;11.30;;
8462;SDS011;4268;52.506;13.462;2023-06-22T02:46:13;11.47;;;10.67;;
8462;SDS011;4268;52.506;13.462;2023-06-22T02:48:39;12.00;;;11.03;;
8462;SDS011;4268;52.506;13.462;2023-06-22T02:51:05;12.20;;;11.33;;
8462;SDS011;4268;52.506;13.462;2023-06-22T02:53:31;11.93;;;11.13;;
8462;SDS011;4268;52.506;13.462;2023-06-22T02:55:57;11.30;;;10.50;;
8462;SDS011;4268;52.506;13.462;2023-06-22T02:58:23;11.17;;;10.47;;
8462;SDS011;4268;52.506;13.462;2023-06-22T03:00:49;11.60;;;10.80;;
8462;SDS011;4268;52.506;13.462;2023-06-22T03:03:17;10.93;;;10.23;;
8462;SDS011;4268;52.506;13.462;2023-06-22T03:05:43;10.70;;;9.97;;
8462;SDS011;4268;52.506;13.462;2023-06-22T03:08:09;11.13;;;10.33;;
8462;SDS011;4268;52.506;13.462;2023-06-22T03:10:34;11.70;;;10.80;;
8462;SDS011;4268;52.506;13.462;2023-06-22T03:13:00;10.77;;;9.97;;
8462;SDS011;4268;52.506;13.462;2023-06-22T03:15:25;10.40;;;9.70;;
8462;SDS011;4268;52.506;13.462;2023-06-22T03:17:54;10.77;;;9.97;;
8462;SDS011;4268;52.506;13.462;2023-06-22T03:20:19;9.83;;;9.10;;
8462;SDS011;4268;52.506;13.462;2023-06-22T03:22:45;10.97;;;10.27;;
8462;SDS011;4268;52.506;13.462;2023-06-22T03:25:11;10.67;;;9.87;;
8462;SDS011;4268;52.506;13.462;2023-06-22T03:27:40;10.33;;;9.53;;
8462;SDS011;4268;52.506;13.462;2023-06-22T03:30:07;9.43;;;8.83;;
8462;SDS011;4268;52.506;13.462;2023-06-22T03:32:34;9.80;;;9.03;;
8462;SDS011;4268;52.506;13.462;2023-06-22T03:34:59;9.00;;;8.40;;
8462;SDS011;4268;52.506;13.462;2023-06-22T03:37:25;9.07;;;8.37;;
8462;SDS011;4268;52.506;13.462;2023-06-22T03:39:51;8.53;;;7.93;;
8462;SDS011;4268;52.506;13.462;2023-06-22T03:42:17;8.87;;;8.23;;
8462;SDS011;4268;52.506;13.462;2023-06-22T03:44:43;8.70;;;8.10;;
8462;SDS011;4268;52.506;13.462;2023-06-22T03:47:09;8.50;;;7.90;;
8462;SDS011;4268;52.506;13.462;2023-06-22T03:49:34;8.50;;;7.80;;
8462;SDS011;4268;52.506;13.462;2023-06-22T03:52:01;7.70;;;7.17;;
8462;SDS011;4268;52.506;13.462;2023-06-22T03:54:28;8.93;;;8.27;;
8462;SDS011;4268;52.506;13.462;2023-06-22T03:56:56;8.57;;;7.97;;
8462;SDS011;4268;52.506;13.462;2023-06-22T03:59:23;8.53;;;7.93;;
8462;SDS011;4268;52.506;13.462;2023-06-22T04:01:49;8.07;;;7.40;;
8462;SDS011;4268;52.506;13.462;2023-06-22T04:04:15;8.17;;;7.57;;
8462;SDS011;4268;52.506;13.462;2023-06-22T04:06:42;7.70;;;7.10;;
8462;SDS011;4268;52.506;13.462;2023-06-22T04:09:08;7.60;;;7.00;;
8462;SDS011;4268;52.506;13.462;2023-06-22T04:11:33;6.80;;;6.30;;
8462;SDS011;4268;52.506;13.462;2023-06-22T04:13:59;6.90;;;6.40;;
8462;SDS011;4268;52.506;13.462;2023-06-22T04:16:25;6.70;;;6.20;;
8462;SDS011;4268;52.506;13.462;2023-06-22T04:18:50;6.90;;;6.30;;
8462;SDS011;4268;52.506;13.462;2023-06-22T04:21:16;6.90;;;6.40;;
8462;SDS011;4268;52.506;13.462;2023-06-22T04:23:41;6.80;;;6.27;;
8462;SDS011;4268;52.506;13.462;2023-06-22T04:26:08;6.93;;;6.43;;
8462;SDS011;4268;52.506;13.462;2023-06-22T04:28:33;6.80;;;6.30;;
8462;SDS011;4268;52.506;13.462;2023-06-22T04:31:01;6.80;;;6.27;;
8462;SDS011;4268;52.506;13.462;2023-06-22T04:33:27;7.10;;;6.50;;
8462;SDS011;4268;52.506;13.462;2023-06-22T04:35:54;6.80;;;6.20;;
8462;SDS011;4268;52.506;13.462;2023-06-22T04:38:22;6.97;;;6.50;;
8462;SDS011;4268;52.506;13.462;2023-06-22T04:40:50;7.30;;;6.53;;
8462;SDS011;4268;52.506;13.462;2023-06-22T04:43:16;7.00;;;6.40;;
8462;SDS011;4268;52.506;13.462;2023-06-22T04:45:41;6.77;;;6.27;;
8462;SDS011;4268;52.506;13.462;2023-06-22T04:48:07;6.43;;;5.93;;
8462;SDS011;4268;52.506;13.462;2023-06-22T04:50:40;7.30;;;6.70;;
8462;SDS011;4268;52.506;13.462;2023-06-22T04:53:06;6.40;;;5.90;;
8462;SDS011;4268;52.506;13.462;2023-06-22T04:55:32;6.43;;;5.93;;
8462;SDS011;4268;52.506;13.462;2023-06-22T04:57:58;6.83;;;6.23;;
8462;SDS011;4268;52.506;13.462;2023-06-22T05:00:30;8.33;;;6.70;;
8462;SDS011;4268;52.506;13.462;2023-06-22T05:02:56;7.60;;;6.50;;
8462;SDS011;4268;52.506;13.462;2023-06-22T05:05:22;6.07;;;5.67;;
8462;SDS011;4268;52.506;13.462;2023-06-22T05:07:49;6.40;;;5.83;;
8462;SDS011;4268;52.506;13.462;2023-06-22T05:10:18;6.23;;;5.73;;
8462;SDS011;4268;52.506;13.462;2023-06-22T05:12:44;6.33;;;5.50;;
8462;SDS011;4268;52.506;13.462;2023-06-22T05:15:09;5.87;;;5.47;;
8462;SDS011;4268;52.506;13.462;2023-06-22T05:17:36;5.63;;;5.10;;
8462;SDS011;4268;52.506;13.462;2023-06-22T05:20:07;6.70;;;6.20;;
8462;SDS011;4268;52.506;13.462;2023-06-22T05:22:34;7.00;;;6.40;;
8462;SDS011;4268;52.506;13.462;2023-06-22T05:24:59;7.37;;;6.87;;
8462;SDS011;4268;52.506;13.462;2023-06-22T05:27:25;7.60;;;7.00;;
8462;SDS011;4268;52.506;13.462;2023-06-22T05:29:50;7.27;;;6.47;;
8462;SDS011;4268;52.506;13.462;2023-06-22T05:32:16;6.87;;;6.37;;
8462;SDS011;4268;52.506;13.462;2023-06-22T05:34:41;6.97;;;6.20;;
8462;SDS011;4268;52.506;13.462;2023-06-22T05:37:07;6.77;;;6.27;;
8462;SDS011;4268;52.506;13.462;2023-06-22T05:39:34;7.10;;;6.50;;
8462;SDS011;4268;52.506;13.462;2023-06-22T05:42:02;6.30;;;5.80;;
8462;SDS011;4268;52.506;13.462;2023-06-22T05:44:29;6.27;;;5.77;;
8462;SDS011;4268;52.506;13.462;2023-06-22T05:46:55;5.50;;;5.10;;
8462;SDS011;4268;52.506;13.462;2023-06-22T05:49:20;5.50;;;5.10;;
8462;SDS011;4268;52.506;13.462;2023-06-22T05:51:47;5.87;;;5.27;;
8462;SDS011;4268;52.506;13.462;2023-06-22T05:54:13;5.43;;;5.03;;
8462;SDS011;4268;52.506;13.462;2023-06-22T05:56:40;5.17;;;4.77;;
8462;SDS011;4268;52.506;13.462;2023-06-22T05:59:06;5.33;;;4.93;;
8462;SDS011;4268;52.506;13.462;2023-06-22T06:01:31;5.10;;;4.60;;
8462;SDS011;4268;52.506;13.462;2023-06-22T06:03:59;5.00;;;4.60;;
8462;SDS011;4268;52.506;13.462;2023-06-22T06:06:25;5.37;;;4.93;;
8462;SDS011;4268;52.506;13.462;2023-06-22T06:08:53;5.07;;;4.60;;
8462;SDS011;4268;52.506;13.462;2023-06-22T06:11:19;5.30;;;4.80;;
8462;SDS011;4268;52.506;13.462;2023-06-22T06:13:44;6.73;;;5.03;;
8462;SDS011;4268;52.506;13.462;2023-06-22T06:16:10;5.20;;;4.88;;
8462;SDS011;4268;52.506;13.462;2023-06-22T06:18:36;4.93;;;4.53;;
8462;SDS011;4268;52.506;13.462;2023-06-22T06:21:02;4.45;;;4.05;;
8462;SDS011;4268;52.506;13.462;2023-06-22T06:23:28;6.53;;;4.40;;
8462;SDS011;4268;52.506;13.462;2023-06-22T06:25:53;4.70;;;4.30;;
8462;SDS011;4268;52.506;13.462;2023-06-22T06:28:19;5.30;;;4.80;;
8462;SDS011;4268;52.506;13.462;2023-06-22T06:30:44;5.10;;;4.65;;
8462;SDS011;4268;52.506;13.462;2023-06-22T06:33:12;4.78;;;4.30;;
8462;SDS011;4268;52.506;13.462;2023-06-22T06:35:37;4.65;;;4.22;;
8462;SDS011;4268;52.506;13.462;2023-06-22T06:38:03;4.20;;;3.90;;
8462;SDS011;4268;52.506;13.462;2023-06-22T06:40:29;4.25;;;3.95;;
8462;SDS011;4268;52.506;13.462;2023-06-22T06:42:54;4.43;;;4.00;;
8462;SDS011;4268;52.506;13.462;2023-06-22T06:45:21;4.13;;;3.70;;
8462;SDS011;4268;52.506;13.462;2023-06-22T06:47:48;3.90;;;3.60;;
8462;SDS011;4268;52.506;13.462;2023-06-22T06:50:14;4.25;;;3.90;;
8462;SDS011;4268;52.506;13.462;2023-06-22T06:52:40;4.35;;;4.07;;
8462;SDS011;4268;52.506;13.462;2023-06-22T06:55:06;3.95;;;3.50;;
8462;SDS011;4268;52.506;13.462;2023-06-22T06:57:34;4.05;;;3.75;;
8462;SDS011;4268;52.506;13.462;2023-06-22T07:00:02;3.78;;;3.42;;
8462;SDS011;4268;52.506;13.462;2023-06-22T07:02:33;3.92;;;3.60;;
8462;SDS011;4268;52.506;13.462;2023-06-22T07:04:59;3.75;;;3.45;;
8462;SDS011;4268;52.506;13.462;2023-06-22T07:07:24;3.80;;;3.60;;
8462;SDS011;4268;52.506;13.462;2023-06-22T07:09:50;4.65;;;4.25;;
8462;SDS011;4268;52.506;13.462;2023-06-22T07:12:15;4.95;;;4.57;;
8462;SDS011;4268;52.506;13.462;2023-06-22T07:14:41;4.00;;;3.70;;
8462;SDS011;4268;52.506;13.462;2023-06-22T07:17:06;3.95;;;3.63;;
8462;SDS011;4268;52.506;13.462;2023-06-22T07:19:32;3.88;;;3.58;;
8462;SDS011;4268;52.506;13.462;2023-06-22T07:21:58;4.13;;;3.57;;
8462;SDS011;4268;52.506;13.462;2023-06-22T07:24:24;4.18;;;3.78;;
8462;SDS011;4268;52.506;13.462;2023-06-22T07:26:49;3.80;;;3.50;;
8462;SDS011;4268;52.506;13.462;2023-06-22T07:29:19;3.92;;;3.67;;
8462;SDS011;4268;52.506;13.462;2023-06-22T07:31:46;4.50;;;3.42;;
8462;SDS011;4268;52.506;13.462;2023-06-22T07:34:12;3.60;;;3.30;;
8462;SDS011;4268;52.506;13.462;2023-06-22T07:36:38;3.50;;;3.22;;
8462;SDS011;4268;52.506;13.462;2023-06-22T07:39:04;3.70;;;3.40;;
8462;SDS011;4268;52.506;13.462;2023-06-22T07:41:30;3.10;;;2.90;;
8462;SDS011;4268;52.506;13.462;2023-06-22T07:43:56;3.63;;;3.40;;
8462;SDS011;4268;52.506;13.462;2023-06-22T07:46:21;3.90;;;3.50;;
8462;SDS011;4268;52.506;13.462;2023-06-22T07:48:47;3.45;;;3.15;;
8462;SDS011;4268;52.506;13.462;2023-06-22T07:51:13;4.93;;;3.40;;
8462;SDS011;4268;52.506;13.462;2023-06-22T07:53:43;3.80;;;3.53;;
8462;SDS011;4268;52.506;13.462;2023-06-22T07:56:12;3.70;;;3.50;;
8462;SDS011;4268;52.506;13.462;2023-06-22T07:58:38;3.90;;;3.60;;
8462;SDS011;4268;52.506;13.462;2023-06-22T08:01:04;3.88;;;3.67;;
8462;SDS011;4268;52.506;13.462;2023-06-22T08:03:30;3.70;;;3.50;;
8462;SDS011;4268;52.506;13.462;2023-06-22T08:05:56;3.80;;;3.50;;
8462;SDS011;4268;52.506;13.462;2023-06-22T08:08:22;3.60;;;3.40;;
8462;SDS011;4268;52.506;13.462;2023-06-22T08:10:47;3.70;;;3.50;;
8462;SDS011;4268;52.506;13.462;2023-06-22T08:13:13;3.40;;;3.20;;
8462;SDS011;4268;52.506;13.462;2023-06-22T08:15:39;4.25;;;3.85;;
8462;SDS011;4268;52.506;13.462;2023-06-22T08:18:04;3.78;;;3.47;;
8462;SDS011;4268;52.506;13.462;2023-06-22T08:20:30;4.17;;;3.83;;
8462;SDS011;4268;52.506;13.462;2023-06-22T08:22:56;3.35;;;3.15;;
8462;SDS011;4268;52.506;13.462;2023-06-22T08:25:25;3.45;;;3.15;;
8462;SDS011;4268;52.506;13.462;2023-06-22T08:27:51;3.67;;;3.30;;
8462;SDS011;4268;52.506;13.462;2023-06-22T08:30:16;3.80;;;3.50;;
8462;SDS011;4268;52.506;13.462;2023-06-22T08:32:43;3.87;;;3.33;;
8462;SDS011;4268;52.506;13.462;2023-06-22T08:35:09;3.30;;;3.10;;
8462;SDS011;4268;52.506;13.462;2023-06-22T08:37:35;3.67;;;3.43;;
8462;SDS011;4268;52.506;13.462;2023-06-22T08:40:01;3.50;;;3.28;;
8462;SDS011;4268;52.506;13.462;2023-06-22T08:42:33;3.20;;;3.00;;
8462;SDS011;4268;52.506;13.462;2023-06-22T08:44:58;3.70;;;3.50;;
8462;SDS011;4268;52.506;13.462;2023-06-22T08:47:24;3.92;;;3.70;;
8462;SDS011;4268;52.506;13.462;2023-06-22T08:49:49;6.97;;;3.60;;
8462;SDS011;4268;52.506;13.462;2023-06-22T08:52:15;4.20;;;3.60;;
8462;SDS011;4268;52.506;13.462;2023-06-22T08:54:42;3.73;;;3.30;;
8462;SDS011;4268;52.506;13.462;2023-06-22T08:57:08;4.63;;;3.50;;
8462;SDS011;4268;52.506;13.462;2023-06-22T08:59:33;3.63;;;3.33;;
8462;SDS011;4268;52.506;13.462;2023-06-22T09:01:59;3.53;;;3.33;;
8462;SDS011;4268;52.506;13.462;2023-06-22T09:04:24;3.92;;;3.50;;
8462;SDS011;4268;52.506;13.462;2023-06-22T09:06:50;4.25;;;3.90;;
8462;SDS011;4268;52.506;13.462;2023-06-22T09:09:17;4.78;;;3.58;;
8462;SDS011;4268;52.506;13.462;2023-06-22T09:11:43;3.95;;;3.60;;
8462;SDS011;4268;52.506;13.462;2023-06-22T09:14:09;4.28;;;4.05;;
8462;SDS011;4268;52.506;13.462;2023-06-22T09:16:35;3.80;;;3.55;;
8462;SDS011;4268;52.506;13.462;2023-06-22T09:19:01;4.28;;;3.97;;
8462;SDS011;4268;52.506;13.462;2023-06-22T09:21:26;5.82;;;3.65;;
8462;SDS011;4268;52.506;13.462;2023-06-22T09:23:52;4.05;;;3.67;;
8462;SDS011;4268;52.506;13.462;2023-06-22T09:26:18;5.45;;;4.13;;
8462;SDS011;4268;52.506;13.462;2023-06-22T09:28:43;4.50;;;4.20;;
8462;SDS011;4268;52.506;13.462;2023-06-22T09:31:09;4.40;;;3.80;;
8462;SDS011;4268;52.506;13.462;2023-06-22T09:33:35;4.03;;;3.80;;
8462;SDS011;4268;52.506;13.462;2023-06-22T09:36:01;4.20;;;3.90;;
8462;SDS011;4268;52.506;13.462;2023-06-22T09:38:26;4.28;;;3.88;;
8462;SDS011;4268;52.506;13.462;2023-06-22T09:40:52;4.40;;;4.10;;
8462;SDS011;4268;52.506;13.462;2023-06-22T09:43:17;3.90;;;3.70;;
8462;SDS011;4268;52.506;13.462;2023-06-22T09:45:43;5.15;;;3.70;;
8462;SDS011;4268;52.506;13.462;2023-06-22T09:48:08;3.83;;;3.63;;
8462;SDS011;4268;52.506;13.462;2023-06-22T09:50:34;6.65;;;4.22;;
8462;SDS011;4268;52.506;13.462;2023-06-22T09:53:01;4.70;;;4.40;;
8462;SDS011;4268;52.506;13.462;2023-06-22T09:55:26;3.90;;;3.70;;
8462;SDS011;4268;52.506;13.462;2023-06-22T09:57:52;4.55;;;4.20;;
8462;SDS011;4268;52.506;13.462;2023-06-22T10:00:17;3.97;;;3.78;;
8462;SDS011;4268;52.506;13.462;2023-06-22T10:02:44;4.28;;;3.97;;
8462;SDS011;4268;52.506;13.462;2023-06-22T10:05:09;4.05;;;3.75;;
8462;SDS011;4268;52.506;13.462;2023-06-22T10:07:35;4.20;;;3.90;;
8462;SDS011;4268;52.506;13.462;2023-06-22T10:10:05;4.70;;;4.03;;
8462;SDS011;4268;52.506;13.462;2023-06-22T10:12:31;4.30;;;4.00;;
8462;SDS011;4268;52.506;13.462;2023-06-22T10:14:57;4.05;;;3.72;;
8462;SDS011;4268;52.506;13.462;2023-06-22T10:17:22;5.13;;;4.00;;
8462;SDS011;4268;52.506;13.462;2023-06-22T10:19:48;4.18;;;3.97;;
8462;SDS011;4268;52.506;13.462;2023-06-22T10:22:13;4.57;;;4.20;;
8462;SDS011;4268;52.506;13.462;2023-06-22T10:24:39;4.40;;;4.00;;
8462;SDS011;4268;52.506;13.462;2023-06-22T10:27:09;4.20;;;3.90;;
8462;SDS011;4268;52.506;13.462;2023-06-22T10:29:35;4.88;;;4.47;;
8462;SDS011;4268;52.506;13.462;2023-06-22T10:32:01;4.32;;;4.03;;
8462;SDS011;4268;52.506;13.462;2023-06-22T10:34:27;4.70;;;4.38;;
8462;SDS011;4268;52.506;13.462;2023-06-22T10:36:52;4.45;;;4.20;;
8462;SDS011;4268;52.506;13.462;2023-06-22T10:39:18;4.20;;;3.95;;
8462;SDS011;4268;52.506;13.462;2023-06-22T10:41:43;4.00;;;3.75;;
8462;SDS011;4268;52.506;13.462;2023-06-22T10:44:09;4.10;;;3.90;;
8462;SDS011;4268;52.506;13.462;2023-06-22T10:46:34;4.45;;;4.10;;
8462;SDS011;4268;52.506;13.462;2023-06-22T10:49:00;3.80;;;3.60;;
8462;SDS011;4268;52.506;13.462;2023-06-22T10:51:25;5.50;;;4.30;;
8462;SDS011;4268;52.506;13.462;2023-06-22T10:53:53;4.05;;;3.85;;
8462;SDS011;4268;52.506;13.462;2023-06-22T10:56:18;4.07;;;3.78;;
8462;SDS011;4268;52.506;13.462;2023-06-22T10:58:44;3.85;;;3.60;;
8462;SDS011;4268;52.506;13.462;2023-06-22T11:01:10;4.40;;;4.10;;
8462;SDS011;4268;52.506;13.462;2023-06-22T11:03:35;4.10;;;3.80;;
8462;SDS011;4268;52.506;13.462;2023-06-22T11:06:01;4.43;;;4.03;;
8462;SDS011;4268;52.506;13.462;2023-06-22T11:08:26;3.90;;;3.70;;
8462;SDS011;4268;52.506;13.462;2023-06-22T11:10:52;3.85;;;3.65;;
8462;SDS011;4268;52.506;13.462;2023-06-22T11:13:17;3.90;;;3.70;;
8462;SDS011;4268;52.506;13.462;2023-06-22T11:15:43;4.03;;;3.70;;
8462;SDS011;4268;52.506;13.462;2023-06-22T11:18:08;3.53;;;3.33;;
8462;SDS011;4268;52.506;13.462;2023-06-22T11:20:34;3.72;;;3.42;;
8462;SDS011;4268;52.506;13.462;2023-06-22T11:23:03;3.80;;;3.60;;
8462;SDS011;4268;52.506;13.462;2023-06-22T11:25:32;3.60;;;3.40;;
8462;SDS011;4268;52.506;13.462;2023-06-22T11:28:00;3.80;;;3.50;;
8462;SDS011;4268;52.506;13.462;2023-06-22T11:30:27;3.85;;;3.60;;
8462;SDS011;4268;52.506;13.462;2023-06-22T11:32:52;3.58;;;3.28;;
8462;SDS011;4268;52.506;13.462;2023-06-22T11:35:18;4.13;;;3.70;;
8462;SDS011;4268;52.506;13.462;2023-06-22T11:37:43;3.95;;;3.63;;
8462;SDS011;4268;52.506;13.462;2023-06-22T11:40:09;3.95;;;3.75;;
8462;SDS011;4268;52.506;13.462;2023-06-22T11:42:35;3.70;;;3.38;;
8462;SDS011;4268;52.506;13.462;2023-06-22T11:45:01;3.83;;;3.58;;
8462;SDS011;4268;52.506;13.462;2023-06-22T11:47:27;3.92;;;3.60;;
8462;SDS011;4268;52.506;13.462;2023-06-22T11:49:53;3.90;;;3.60;;
8462;SDS011;4268;52.506;13.462;2023-06-22T11:52:18;4.13;;;3.80;;
8462;SDS011;4268;52.506;13.462;2023-06-22T11:54:44;3.70;;;3.50;;
8462;SDS011;4268;52.506;13.462;2023-06-22T11:57:10;3.42;;;3.22;;
8462;SDS011;4268;52.506;13.462;2023-06-22T11:59:36;3.67;;;3.47;;
8462;SDS011;4268;52.506;13.462;2023-06-22T12:02:01;3.85;;;3.65;;
8462;SDS011;4268;52.506;13.462;2023-06-22T12:04:27;3.70;;;3.47;;
8462;SDS011;4268;52.506;13.462;2023-06-22T12:06:52;4.32;;;4.03;;
8462;SDS011;4268;52.506;13.462;2023-06-22T12:09:18;3.47;;;3.28;;
8462;SDS011;4268;52.506;13.462;2023-06-22T12:11:43;3.90;;;3.70;;
8462;SDS011;4268;52.506;13.462;2023-06-22T12:14:09;4.38;;;3.97;;
8462;SDS011;4268;52.506;13.462;2023-06-22T12:16:34;5.03;;;4.05;;
8462;SDS011;4268;52.506;13.462;2023-06-22T12:19:00;3.85;;;3.55;;
8462;SDS011;4268;52.506;13.462;2023-06-22T12:21:25;3.97;;;3.78;;
8462;SDS011;4268;52.506;13.462;2023-06-22T12:23:51;4.00;;;3.70;;
8462;SDS011;4268;52.506;13.462;2023-06-22T12:26:16;4.43;;;3.92;;
8462;SDS011;4268;52.506;13.462;2023-06-22T12:28:42;3.97;;;3.70;;
8462;SDS011;4268;52.506;13.462;2023-06-22T12:31:07;3.88;;;3.67;;
8462;SDS011;4268;52.506;13.462;2023-06-22T12:33:33;3.80;;;3.50;;
8462;SDS011;4268;52.506;13.462;2023-06-22T12:35:58;4.03;;;3.83;;
8462;SDS011;4268;52.506;13.462;2023-06-22T12:38:24;3.72;;;3.53;;
8462;SDS011;4268;52.506;13.462;2023-06-22T12:40:50;3.90;;;3.70;;
8462;SDS011;4268;52.506;13.462;2023-06-22T12:43:17;4.38;;;4.07;;
8462;SDS011;4268;52.506;13.462;2023-06-22T12:45:42;4.38;;;4.07;;
8462;SDS011;4268;52.506;13.462;2023-06-22T12:48:08;4.10;;;3.80;;
8462;SDS011;4268;52.506;13.462;2023-06-22T12:50:34;3.92;;;3.72;;
8462;SDS011;4268;52.506;13.462;2023-06-22T12:52:59;4.68;;;4.28;;
8462;SDS011;4268;52.506;13.462;2023-06-22T12:55:27;3.67;;;3.38;;
8462;SDS011;4268;52.506;13.462;2023-06-22T12:57:52;4.25;;;3.95;;
8462;SDS011;4268;52.506;13.462;2023-06-22T13:00:18;4.15;;;3.95;;
8462;SDS011;4268;52.506;13.462;2023-06-22T13:02:44;4.03;;;3.72;;
8462;SDS011;4268;52.506;13.462;2023-06-22T13:05:10;4.05;;;3.85;;
8462;SDS011;4268;52.506;13.462;2023-06-22T13:07:36;4.18;;;3.88;;
8462;SDS011;4268;52.506;13.462;2023-06-22T13:10:01;4.20;;;3.90;;
8462;SDS011;4268;52.506;13.462;2023-06-22T13:12:27;4.22;;;3.83;;
8462;SDS011;4268;52.506;13.462;2023-06-22T13:14:53;4.18;;;3.95;;
8462;SDS011;4268;52.506;13.462;2023-06-22T13:17:18;4.13;;;3.83;;
8462;SDS011;4268;52.506;13.462;2023-06-22T13:19:44;4.50;;;4.10;;
8462;SDS011;4268;52.506;13.462;2023-06-22T13:24:55;4.22;;;3.92;;
8462;SDS011;4268;52.506;13.462;2023-06-22T13:27:21;4.53;;;4.22;;
8462;SDS011;4268;52.506;13.462;2023-06-22T13:29:47;4.20;;;3.92;;
8462;SDS011;4268;52.506;13.462;2023-06-22T13:32:13;4.20;;;4.00;;
8462;SDS011;4268;52.506;13.462;2023-06-22T13:34:38;4.13;;;3.92;;
8462;SDS011;4268;52.506;13.462;2023-06-22T13:37:04;3.83;;;3.53;;
8462;SDS011;4268;52.506;13.462;2023-06-22T13:39:30;4.20;;;3.90;;
8462;SDS011;4268;52.506;13.462;2023-06-22T13:41:55;4.32;;;4.07;;
8462;SDS011;4268;52.506;13.462;2023-06-22T13:44:21;4.30;;;4.00;;
8462;SDS011;4268;52.506;13.462;2023-06-22T13:46:47;3.85;;;3.55;;
8462;SDS011;4268;52.506;13.462;2023-06-22T13:49:12;4.00;;;3.80;;
8462;SDS011;4268;52.506;13.462;2023-06-22T13:51:38;4.10;;;3.80;;
8462;SDS011;4268;52.506;13.462;2023-06-22T13:54:03;4.53;;;4.22;;
8462;SDS011;4268;52.506;13.462;2023-06-22T13:56:29;4.30;;;4.10;;
8462;SDS011;4268;52.506;13.462;2023-06-22T13:58:54;6.72;;;3.83;;
8462;SDS011;4268;52.506;13.462;2023-06-22T14:01:20;4.35;;;4.00;;
8462;SDS011;4268;52.506;13.462;2023-06-22T14:06:24;4.43;;;4.13;;
8462;SDS011;4268;52.506;13.462;2023-06-22T14:08:49;4.40;;;4.03;;
8462;SDS011;4268;52.506;13.462;2023-06-22T14:11:15;4.32;;;4.03;;
8462;SDS011;4268;52.506;13.462;2023-06-22T14:13:41;4.38;;;4.07;;
8462;SDS011;4268;52.506;13.462;2023-06-22T14:16:07;4.10;;;3.90;;
8462;SDS011;4268;52.506;13.462;2023-06-22T14:18:33;4.60;;;4.30;;
8462;SDS011;4268;52.506;13.462;2023-06-22T14:20:58;4.07;;;3.78;;
8462;SDS011;4268;52.506;13.462;2023-06-22T14:23:24;4.38;;;4.07;;
8462;SDS011;4268;52.506;13.462;2023-06-22T14:25:49;4.15;;;3.92;;
8462;SDS011;4268;52.506;13.462;2023-06-22T14:28:15;3.92;;;3.70;;
8462;SDS011;4268;52.506;13.462;2023-06-22T14:30:41;3.80;;;3.60;;
8462;SDS011;4268;52.506;13.462;2023-06-22T14:33:07;4.35;;;3.95;;
8462;SDS011;4268;52.506;13.462;2023-06-22T14:35:32;4.40;;;4.10;;
8462;SDS011;4268;52.506;13.462;2023-06-22T14:37:58;4.43;;;4.03;;
8462;SDS011;4268;52.506;13.462;2023-06-22T14:40:23;4.53;;;4.22;;
8462;SDS011;4268;52.506;13.462;2023-06-22T14:42:49;4.32;;;4.03;;
8462;SDS011;4268;52.506;13.462;2023-06-22T14:45:14;4.50;;;4.20;;
8462;SDS011;4268;52.506;13.462;2023-06-22T14:47:40;4.53;;;4.03;;
8462;SDS011;4268;52.506;13.462;2023-06-22T14:50:05;4.25;;;3.95;;
8462;SDS011;4268;52.506;13.462;2023-06-22T14:52:31;4.47;;;4.25;;
8462;SDS011;4268;52.506;13.462;2023-06-22T14:54:57;4.82;;;4.43;;
8462;SDS011;4268;52.506;13.462;2023-06-22T14:57:22;4.75;;;4.30;;
8462;SDS011;4268;52.506;13.462;2023-06-22T14:59:48;4.40;;;4.10;;
8462;SDS011;4268;52.506;13.462;2023-06-22T15:02:14;4.28;;;3.92;;
8462;SDS011;4268;52.506;13.462;2023-06-22T15:04:40;4.35;;;4.05;;